sensor_id;sensor_type;location;lat;lon;timestamp;pressure;altitude;pressure_sealevel;temperature;humidity
61786;BME280;47692;53.714;11.372;2022-08-03T00:01:17;100989.06;;;20.76;64.00
61786;BME280;47692;53.714;11.372;2022-08-03T00:03:43;100984.03;;;20.72;64.21
61786;BME280;47692;53.714;11.372;2022-08-03T00:06:09;100989.59;;;20.67;64.27
61786;BME280;47692;53.714;11.372;2022-08-03T00:08:34;100986.94;;;20.67;64.10
61786;BME280;47692;53.714;11.372;2022-08-03T00:11:00;100987.22;;;20.62;63.97
61786;BME280;47692;53.714;11.372;2022-08-03T00:13:25;100979.91;;;20.66;63.52
61786;BME280;47692;53.714;11.372;2022-08-03T00:15:51;100982.88;;;20.61;63.67
61786;BME280;47692;53.714;11.372;2022-08-03T00:18:17;100982.88;;;20.61;63.58
61786;BME280;47692;53.714;11.372;2022-08-03T00:20:42;100982.88;;;20.61;63.37
61786;BME280;47692;53.714;11.372;2022-08-03T00:23:08;100981.84;;;20.64;63.47
61786;BME280;47692;53.714;11.372;2022-08-03T00:25:34;100986.47;;;20.60;63.68
61786;BME280;47692;53.714;11.372;2022-08-03T00:28:00;100981.16;;;20.60;63.78
61786;BME280;47692;53.714;11.372;2022-08-03T00:30:26;100983.72;;;20.62;63.90
61786;BME280;47692;53.714;11.372;2022-08-03T00:32:51;100971.03;;;20.67;63.57
61786;BME280;47692;53.714;11.372;2022-08-03T00:35:17;100981.16;;;20.60;63.81
61786;BME280;47692;53.714;11.372;2022-08-03T00:37:42;100972.25;;;20.61;64.10
61786;BME280;47692;53.714;11.372;2022-08-03T00:40:10;100976.97;;;20.56;64.47
61786;BME280;47692;53.714;11.372;2022-08-03T00:45:17;100980.66;;;20.54;64.44
61786;BME280;47692;53.714;11.372;2022-08-03T00:47:43;100979.81;;;20.53;64.62
61786;BME280;47692;53.714;11.372;2022-08-03T00:50:08;100971.97;;;20.52;65.04
61786;BME280;47692;53.714;11.372;2022-08-03T00:52:34;100974.69;;;20.50;65.16
61786;BME280;47692;53.714;11.372;2022-08-03T00:55:00;100970.34;;;20.49;65.68
61786;BME280;47692;53.714;11.372;2022-08-03T00:57:27;100974.06;;;20.46;65.70
61786;BME280;47692;53.714;11.372;2022-08-03T00:59:54;100959.75;;;20.49;65.94
61786;BME280;47692;53.714;11.372;2022-08-03T01:02:20;100953.84;;;20.44;66.07
61786;BME280;47692;53.714;11.372;2022-08-03T01:04:45;100963.72;;;20.42;66.35
61786;BME280;47692;53.714;11.372;2022-08-03T01:07:20;100956.81;;;20.39;66.61
61786;BME280;47692;53.714;11.372;2022-08-03T01:12:47;100955.25;;;20.35;66.95
61786;BME280;47692;53.714;11.372;2022-08-03T01:15:31;100959.91;;;20.31;67.44
61786;BME280;47692;53.714;11.372;2022-08-03T01:18:19;100949.47;;;20.28;67.80
61786;BME280;47692;53.714;11.372;2022-08-03T01:20:48;100954.97;;;20.25;68.23
61786;BME280;47692;53.714;11.372;2022-08-03T01:23:36;100950.69;;;20.23;68.25
61786;BME280;47692;53.714;11.372;2022-08-03T01:31:40;100952.28;;;20.11;69.17
61786;BME280;47692;53.714;11.372;2022-08-03T01:34:09;100947.16;;;20.08;69.45
61786;BME280;47692;53.714;11.372;2022-08-03T01:36:48;100948.28;;;20.04;69.80
61786;BME280;47692;53.714;11.372;2022-08-03T01:39:15;100947.72;;;19.98;70.44
61786;BME280;47692;53.714;11.372;2022-08-03T01:41:50;100949.59;;;19.96;70.85
61786;BME280;47692;53.714;11.372;2022-08-03T01:44:19;100947.03;;;19.95;71.57
61786;BME280;47692;53.714;11.372;2022-08-03T01:46:47;100951.31;;;19.97;69.21
61786;BME280;47692;53.714;11.372;2022-08-03T01:49:16;100947.34;;;20.05;66.91
61786;BME280;47692;53.714;11.372;2022-08-03T01:51:43;100945.38;;;20.08;66.96
61786;BME280;47692;53.714;11.372;2022-08-03T01:54:10;100936.38;;;20.11;66.44
61786;BME280;47692;53.714;11.372;2022-08-03T01:56:37;100939.72;;;20.14;65.96
61786;BME280;47692;53.714;11.372;2022-08-03T01:59:06;100938.84;;;20.14;66.00
61786;BME280;47692;53.714;11.372;2022-08-03T02:01:34;100940.66;;;20.13;66.12
61786;BME280;47692;53.714;11.372;2022-08-03T02:04:02;100936.19;;;20.14;65.36
61786;BME280;47692;53.714;11.372;2022-08-03T02:06:29;100932.59;;;20.15;64.98
61786;BME280;47692;53.714;11.372;2022-08-03T02:08:58;100936.19;;;20.14;64.95
61786;BME280;47692;53.714;11.372;2022-08-03T02:11:25;100937.22;;;20.11;64.74
61786;BME280;47692;53.714;11.372;2022-08-03T02:13:51;100939.44;;;20.19;64.61
61786;BME280;47692;53.714;11.372;2022-08-03T02:16:18;100934.69;;;20.10;64.55
61786;BME280;47692;53.714;11.372;2022-08-03T02:18:46;100931.94;;;20.11;64.78
61786;BME280;47692;53.714;11.372;2022-08-03T02:21:13;100935.63;;;20.09;64.86
61786;BME280;47692;53.714;11.372;2022-08-03T02:23:39;100930.50;;;20.06;64.96
61786;BME280;47692;53.714;11.372;2022-08-03T02:26:12;100932.97;;;20.09;65.05
61786;BME280;47692;53.714;11.372;2022-08-03T02:28:42;100932.97;;;20.09;64.62
61786;BME280;47692;53.714;11.372;2022-08-03T02:31:15;100934.69;;;20.10;64.96
61786;BME280;47692;53.714;11.372;2022-08-03T02:33:48;100929.94;;;20.15;65.28
61786;BME280;47692;53.714;11.372;2022-08-03T02:36:19;100932.69;;;20.13;65.05
61786;BME280;47692;53.714;11.372;2022-08-03T02:38:48;100926.94;;;20.21;64.94
61786;BME280;47692;53.714;11.372;2022-08-03T02:41:23;100923.53;;;20.19;64.87
61786;BME280;47692;53.714;11.372;2022-08-03T02:43:53;100924.66;;;20.15;64.75
61786;BME280;47692;53.714;11.372;2022-08-03T02:46:23;100924.56;;;20.16;64.96
61786;BME280;47692;53.714;11.372;2022-08-03T02:48:52;100924.28;;;20.21;64.71
61786;BME280;47692;53.714;11.372;2022-08-03T02:51:19;100923.72;;;20.16;65.09
61786;BME280;47692;53.714;11.372;2022-08-03T02:53:47;100925.97;;;20.08;65.48
61786;BME280;47692;53.714;11.372;2022-08-03T02:56:13;100919.50;;;19.97;65.88
61786;BME280;47692;53.714;11.372;2022-08-03T02:58:42;100919.88;;;19.91;66.07
61786;BME280;47692;53.714;11.372;2022-08-03T03:01:08;100920.22;;;19.85;65.93
61786;BME280;47692;53.714;11.372;2022-08-03T03:03:34;100920.38;;;19.82;66.18
61786;BME280;47692;53.714;11.372;2022-08-03T03:06:01;100920.75;;;19.76;66.34
61786;BME280;47692;53.714;11.372;2022-08-03T03:08:27;100913.91;;;19.72;66.49
61786;BME280;47692;53.714;11.372;2022-08-03T03:10:55;100913.50;;;19.63;66.77
61786;BME280;47692;53.714;11.372;2022-08-03T03:13:21;100921.81;;;19.57;67.00
61786;BME280;47692;53.714;11.372;2022-08-03T03:15:47;100920.25;;;19.53;67.34
61786;BME280;47692;53.714;11.372;2022-08-03T03:18:14;100920.88;;;19.58;67.25
61786;BME280;47692;53.714;11.372;2022-08-03T03:20:41;100923.88;;;19.52;67.35
61786;BME280;47692;53.714;11.372;2022-08-03T03:23:07;100927.81;;;19.45;67.53
61786;BME280;47692;53.714;11.372;2022-08-03T03:25:34;100926.00;;;19.45;68.02
61786;BME280;47692;53.714;11.372;2022-08-03T03:28:00;100931.19;;;19.47;67.86
61786;BME280;47692;53.714;11.372;2022-08-03T03:30:27;100929.53;;;19.46;68.06
61786;BME280;47692;53.714;11.372;2022-08-03T03:32:54;100928.16;;;19.38;68.24
61786;BME280;47692;53.714;11.372;2022-08-03T03:35:20;100931.06;;;19.34;68.26
61786;BME280;47692;53.714;11.372;2022-08-03T03:37:46;100935.66;;;19.30;68.53
61786;BME280;47692;53.714;11.372;2022-08-03T03:40:11;100926.97;;;19.28;68.98
61786;BME280;47692;53.714;11.372;2022-08-03T03:42:37;100933.59;;;19.35;68.50
61786;BME280;47692;53.714;11.372;2022-08-03T03:45:04;100929.63;;;19.28;68.88
61786;BME280;47692;53.714;11.372;2022-08-03T03:47:30;100929.69;;;19.27;69.08
61786;BME280;47692;53.714;11.372;2022-08-03T03:49:56;100933.25;;;19.26;69.27
61786;BME280;47692;53.714;11.372;2022-08-03T03:52:22;100922.78;;;19.24;69.24
61786;BME280;47692;53.714;11.372;2022-08-03T03:54:47;100926.97;;;19.28;69.47
61786;BME280;47692;53.714;11.372;2022-08-03T03:57:13;100923.72;;;19.23;69.50
61786;BME280;47692;53.714;11.372;2022-08-03T03:59:40;100926.63;;;19.18;69.52
61786;BME280;47692;53.714;11.372;2022-08-03T04:02:06;100929.34;;;19.17;69.96
61786;BME280;47692;53.714;11.372;2022-08-03T04:04:32;100931.06;;;19.18;69.78
61786;BME280;47692;53.714;11.372;2022-08-03T04:07:20;100927.66;;;19.16;69.82
61786;BME280;47692;53.714;11.372;2022-08-03T04:10:12;100926.63;;;19.18;70.14
61786;BME280;47692;53.714;11.372;2022-08-03T04:12:58;100927.47;;;19.19;70.18
61786;BME280;47692;53.714;11.372;2022-08-03T04:15:26;100928.41;;;19.18;70.35
61786;BME280;47692;53.714;11.372;2022-08-03T04:17:54;100928.16;;;19.23;70.31
61786;BME280;47692;53.714;11.372;2022-08-03T04:20:22;100927.47;;;19.19;70.33
61786;BME280;47692;53.714;11.372;2022-08-03T04:22:50;100927.97;;;19.26;70.36
61786;BME280;47692;53.714;11.372;2022-08-03T04:25:17;100928.31;;;19.35;69.91
61786;BME280;47692;53.714;11.372;2022-08-03T04:27:46;100937.19;;;19.34;70.16
61786;BME280;47692;53.714;11.372;2022-08-03T04:30:13;100931.63;;;19.39;70.13
61786;BME280;47692;53.714;11.372;2022-08-03T04:32:39;100932.75;;;19.51;69.47
61786;BME280;47692;53.714;11.372;2022-08-03T04:35:06;100935.66;;;19.46;69.58
61786;BME280;47692;53.714;11.372;2022-08-03T04:37:43;100933.50;;;19.53;69.78
61786;BME280;47692;53.714;11.372;2022-08-03T04:40:25;100936.16;;;19.53;69.71
61786;BME280;47692;53.714;11.372;2022-08-03T04:42:53;100942.66;;;19.63;69.62
61786;BME280;47692;53.714;11.372;2022-08-03T04:45:20;100933.91;;;19.77;69.50
61786;BME280;47692;53.714;11.372;2022-08-03T04:47:46;100938.00;;;19.83;69.22
61786;BME280;47692;53.714;11.372;2022-08-03T04:50:12;100939.53;;;19.87;69.22
61786;BME280;47692;53.714;11.372;2022-08-03T04:52:37;100933.13;;;19.91;68.93
61786;BME280;47692;53.714;11.372;2022-08-03T04:55:03;100936.44;;;19.95;68.98
61786;BME280;47692;53.714;11.372;2022-08-03T04:57:29;100940.91;;;20.09;68.95
61786;BME280;47692;53.714;11.372;2022-08-03T04:59:54;100942.53;;;20.11;69.07
61786;BME280;47692;53.714;11.372;2022-08-03T05:02:21;100945.84;;;20.15;68.79
61786;BME280;47692;53.714;11.372;2022-08-03T05:04:46;100940.97;;;20.23;69.05
61786;BME280;47692;53.714;11.372;2022-08-03T05:07:12;100956.69;;;20.41;68.28
61786;BME280;47692;53.714;11.372;2022-08-03T05:09:38;100955.56;;;20.45;67.97
61786;BME280;47692;53.714;11.372;2022-08-03T05:12:04;100944.41;;;20.54;68.12
61786;BME280;47692;53.714;11.372;2022-08-03T05:14:30;100946.38;;;20.65;67.71
61786;BME280;47692;53.714;11.372;2022-08-03T05:16:55;100940.22;;;20.64;67.34
61786;BME280;47692;53.714;11.372;2022-08-03T05:19:20;100947.03;;;20.69;67.76
61786;BME280;47692;53.714;11.372;2022-08-03T05:21:46;100945.56;;;20.79;68.12
61786;BME280;47692;53.714;11.372;2022-08-03T05:24:11;100952.78;;;20.91;67.34
61786;BME280;47692;53.714;11.372;2022-08-03T05:26:36;100947.81;;;20.99;67.81
61786;BME280;47692;53.714;11.372;2022-08-03T05:29:02;100948.38;;;21.05;66.88
61786;BME280;47692;53.714;11.372;2022-08-03T05:31:27;100942.69;;;21.11;66.58
61786;BME280;47692;53.714;11.372;2022-08-03T05:33:53;100943.59;;;21.24;66.46
61786;BME280;47692;53.714;11.372;2022-08-03T05:36:18;100950.03;;;21.35;66.36
61786;BME280;47692;53.714;11.372;2022-08-03T05:38:44;100945.84;;;21.45;66.30
61786;BME280;47692;53.714;11.372;2022-08-03T05:41:09;100943.50;;;21.53;66.16
61786;BME280;47692;53.714;11.372;2022-08-03T05:43:35;100949.97;;;21.63;65.80
61786;BME280;47692;53.714;11.372;2022-08-03T05:46:00;100944.09;;;21.86;65.08
61786;BME280;47692;53.714;11.372;2022-08-03T05:48:25;100944.41;;;21.94;65.41
61786;BME280;47692;53.714;11.372;2022-08-03T05:50:51;100950.91;;;22.03;64.46
61786;BME280;47692;53.714;11.372;2022-08-03T05:53:16;100941.56;;;22.10;64.17
61786;BME280;47692;53.714;11.372;2022-08-03T05:55:41;100948.19;;;22.17;64.46
61786;BME280;47692;53.714;11.372;2022-08-03T05:58:07;100946.91;;;22.36;63.75
61786;BME280;47692;53.714;11.372;2022-08-03T06:00:32;100943.09;;;22.40;63.47
61786;BME280;47692;53.714;11.372;2022-08-03T06:02:57;100943.97;;;22.53;63.64
61786;BME280;47692;53.714;11.372;2022-08-03T06:05:23;100946.53;;;22.68;63.33
61786;BME280;47692;53.714;11.372;2022-08-03T06:07:51;100944.66;;;22.81;63.34
61786;BME280;47692;53.714;11.372;2022-08-03T06:10:16;100947.66;;;22.89;62.49
61786;BME280;47692;53.714;11.372;2022-08-03T06:12:42;100948.16;;;22.95;62.89
61786;BME280;47692;53.714;11.372;2022-08-03T06:15:09;100944.19;;;23.13;62.55
61786;BME280;47692;53.714;11.372;2022-08-03T06:17:49;100941.28;;;23.29;61.72
61786;BME280;47692;53.714;11.372;2022-08-03T06:20:17;100943.38;;;23.37;62.00
61786;BME280;47692;53.714;11.372;2022-08-03T06:22:43;100944.88;;;23.41;61.42
61786;BME280;47692;53.714;11.372;2022-08-03T06:25:08;100947.59;;;23.52;61.44
61786;BME280;47692;53.714;11.372;2022-08-03T06:27:34;100942.81;;;23.69;61.94
61786;BME280;47692;53.714;11.372;2022-08-03T06:30:02;100948.94;;;23.82;61.03
61786;BME280;47692;53.714;11.372;2022-08-03T06:32:28;100941.44;;;23.87;60.26
61786;BME280;47692;53.714;11.372;2022-08-03T06:34:53;100943.13;;;23.88;60.58
61786;BME280;47692;53.714;11.372;2022-08-03T06:37:18;100942.06;;;23.91;60.87
61786;BME280;47692;53.714;11.372;2022-08-03T06:39:43;100943.34;;;24.10;60.79
61786;BME280;47692;53.714;11.372;2022-08-03T06:42:09;100944.47;;;24.18;60.64
61786;BME280;47692;53.714;11.372;2022-08-03T06:44:34;100946.88;;;24.33;60.79
61786;BME280;47692;53.714;11.372;2022-08-03T06:47:01;100945.47;;;24.51;59.75
61786;BME280;47692;53.714;11.372;2022-08-03T06:49:27;100954.72;;;24.70;59.82
61786;BME280;47692;53.714;11.372;2022-08-03T06:51:52;100949.63;;;24.90;60.79
61786;BME280;47692;53.714;11.372;2022-08-03T06:54:18;100948.16;;;25.08;59.17
61786;BME280;47692;53.714;11.372;2022-08-03T06:56:43;100948.59;;;25.25;58.79
61786;BME280;47692;53.714;11.372;2022-08-03T06:59:09;100954.66;;;25.38;59.07
61786;BME280;47692;53.714;11.372;2022-08-03T07:01:34;100959.97;;;25.49;59.03
61786;BME280;47692;53.714;11.372;2022-08-03T07:03:59;100956.03;;;25.65;58.25
61786;BME280;47692;53.714;11.372;2022-08-03T07:06:25;100964.25;;;25.73;57.93
61786;BME280;47692;53.714;11.372;2022-08-03T07:08:50;100965.22;;;25.84;57.74
61786;BME280;47692;53.714;11.372;2022-08-03T07:11:16;100956.34;;;26.04;56.79
61786;BME280;47692;53.714;11.372;2022-08-03T07:13:41;100954.47;;;26.16;56.50
61786;BME280;47692;53.714;11.372;2022-08-03T07:16:07;100951.22;;;26.12;56.10
61786;BME280;47692;53.714;11.372;2022-08-03T07:18:32;100961.56;;;26.27;56.94
61786;BME280;47692;53.714;11.372;2022-08-03T07:20:58;100957.16;;;26.37;56.19
61786;BME280;47692;53.714;11.372;2022-08-03T07:23:23;100957.56;;;26.64;56.00
61786;BME280;47692;53.714;11.372;2022-08-03T07:25:49;100947.50;;;26.77;55.40
61786;BME280;47692;53.714;11.372;2022-08-03T07:28:14;100954.91;;;27.04;54.91
61786;BME280;47692;53.714;11.372;2022-08-03T07:30:40;100951.81;;;26.99;55.05
61786;BME280;47692;53.714;11.372;2022-08-03T07:33:05;100950.91;;;26.89;54.91
61786;BME280;47692;53.714;11.372;2022-08-03T07:35:31;100952.66;;;27.09;55.65
61786;BME280;47692;53.714;11.372;2022-08-03T07:37:56;100950.84;;;27.20;54.14
61786;BME280;47692;53.714;11.372;2022-08-03T07:40:21;100958.66;;;27.33;53.88
61786;BME280;47692;53.714;11.372;2022-08-03T07:42:47;100946.22;;;27.22;53.38
61786;BME280;47692;53.714;11.372;2022-08-03T07:45:12;100952.97;;;27.26;53.53
61786;BME280;47692;53.714;11.372;2022-08-03T07:47:38;100951.81;;;27.19;53.53
61786;BME280;47692;53.714;11.372;2022-08-03T07:50:05;100952.41;;;27.32;53.98
61786;BME280;47692;53.714;11.372;2022-08-03T07:52:30;100949.81;;;27.52;54.02
61786;BME280;47692;53.714;11.372;2022-08-03T07:55:16;100959.25;;;27.85;52.92
61786;BME280;47692;53.714;11.372;2022-08-03T07:57:42;100951.50;;;27.72;52.58
61786;BME280;47692;53.714;11.372;2022-08-03T08:00:15;100947.69;;;27.65;52.87
61786;BME280;47692;53.714;11.372;2022-08-03T08:02:41;100942.59;;;27.72;52.69
61786;BME280;47692;53.714;11.372;2022-08-03T08:05:07;100943.31;;;27.54;53.40
61786;BME280;47692;53.714;11.372;2022-08-03T08:07:35;100947.41;;;27.78;52.91
61786;BME280;47692;53.714;11.372;2022-08-03T08:10:00;100936.94;;;28.04;52.75
61786;BME280;47692;53.714;11.372;2022-08-03T08:12:26;100937.63;;;28.16;52.11
61786;BME280;47692;53.714;11.372;2022-08-03T08:14:51;100944.81;;;28.16;51.61
61786;BME280;47692;53.714;11.372;2022-08-03T08:17:17;100934.97;;;27.87;51.87
61786;BME280;47692;53.714;11.372;2022-08-03T08:19:43;100943.16;;;27.95;52.17
61786;BME280;47692;53.714;11.372;2022-08-03T08:22:09;100943.16;;;28.15;51.80
61786;BME280;47692;53.714;11.372;2022-08-03T08:24:34;100940.31;;;28.26;52.12
61786;BME280;47692;53.714;11.372;2022-08-03T08:26:59;100942.41;;;28.32;50.82
61786;BME280;47692;53.714;11.372;2022-08-03T08:29:26;100942.50;;;28.41;51.32
61786;BME280;47692;53.714;11.372;2022-08-03T08:31:51;100932.06;;;28.37;51.05
61786;BME280;47692;53.714;11.372;2022-08-03T08:34:17;100930.88;;;28.60;50.85
61786;BME280;47692;53.714;11.372;2022-08-03T08:36:42;100930.84;;;28.69;50.31
61786;BME280;47692;53.714;11.372;2022-08-03T08:39:08;100927.72;;;28.64;50.26
61786;BME280;47692;53.714;11.372;2022-08-03T08:41:33;100930.00;;;28.59;50.82
61786;BME280;47692;53.714;11.372;2022-08-03T08:44:00;100925.75;;;28.94;50.88
61786;BME280;47692;53.714;11.372;2022-08-03T08:46:26;100923.44;;;28.81;50.29
61786;BME280;47692;53.714;11.372;2022-08-03T08:48:54;100925.63;;;28.96;50.82
61786;BME280;47692;53.714;11.372;2022-08-03T08:51:21;100916.47;;;29.07;50.03
61786;BME280;47692;53.714;11.372;2022-08-03T08:53:50;100941.09;;;29.12;49.96
61786;BME280;47692;53.714;11.372;2022-08-03T08:56:17;100928.75;;;28.91;50.17
61786;BME280;47692;53.714;11.372;2022-08-03T08:58:50;100928.75;;;28.91;49.94
61786;BME280;47692;53.714;11.372;2022-08-03T09:01:18;100927.22;;;29.07;50.17
61786;BME280;47692;53.714;11.372;2022-08-03T09:03:45;100921.94;;;28.69;50.34
61786;BME280;47692;53.714;11.372;2022-08-03T09:06:10;100923.59;;;28.98;50.42
61786;BME280;47692;53.714;11.372;2022-08-03T09:08:36;100926.25;;;29.36;49.90
61786;BME280;47692;53.714;11.372;2022-08-03T09:11:01;100928.38;;;29.50;50.04
61786;BME280;47692;53.714;11.372;2022-08-03T09:13:27;100928.31;;;29.42;49.41
61786;BME280;47692;53.714;11.372;2022-08-03T09:18:38;100921.63;;;29.46;49.74
61786;BME280;47692;53.714;11.372;2022-08-03T09:21:21;100929.38;;;29.49;49.39
61786;BME280;47692;53.714;11.372;2022-08-03T09:23:52;100923.59;;;29.44;48.78
61786;BME280;47692;53.714;11.372;2022-08-03T09:28:57;100924.75;;;29.41;49.25
61786;BME280;47692;53.714;11.372;2022-08-03T09:31:33;100917.53;;;29.60;48.69
61786;BME280;47692;53.714;11.372;2022-08-03T09:34:10;100924.28;;;29.82;48.63
61786;BME280;47692;53.714;11.372;2022-08-03T09:36:49;100911.56;;;29.48;48.85
61786;BME280;47692;53.714;11.372;2022-08-03T09:39:20;100920.91;;;29.62;49.10
61786;BME280;47692;53.714;11.372;2022-08-03T09:42:08;100916.13;;;29.74;49.19
61786;BME280;47692;53.714;11.372;2022-08-03T09:44:34;100914.97;;;29.94;48.09
61786;BME280;47692;53.714;11.372;2022-08-03T09:47:00;100908.13;;;30.00;47.87
61786;BME280;47692;53.714;11.372;2022-08-03T09:49:26;100909.34;;;30.06;48.06
61786;BME280;47692;53.714;11.372;2022-08-03T09:51:52;100912.97;;;29.96;48.24
61786;BME280;47692;53.714;11.372;2022-08-03T09:54:27;100912.50;;;30.01;48.21
61786;BME280;47692;53.714;11.372;2022-08-03T09:56:53;100911.28;;;29.95;48.40
61786;BME280;47692;53.714;11.372;2022-08-03T09:59:27;100908.44;;;29.97;48.24
61786;BME280;47692;53.714;11.372;2022-08-03T10:01:54;100909.78;;;30.01;48.22
61786;BME280;47692;53.714;11.372;2022-08-03T10:04:20;100906.06;;;29.94;48.63
61786;BME280;47692;53.714;11.372;2022-08-03T10:07:09;100907.28;;;30.00;48.53
61786;BME280;47692;53.714;11.372;2022-08-03T10:09:52;100909.50;;;30.04;47.55
61786;BME280;47692;53.714;11.372;2022-08-03T10:12:18;100902.03;;;30.24;48.03
61786;BME280;47692;53.714;11.372;2022-08-03T10:14:45;100892.78;;;30.53;46.84
61786;BME280;47692;53.714;11.372;2022-08-03T10:17:11;100891.94;;;30.53;47.13
61786;BME280;47692;53.714;11.372;2022-08-03T10:19:36;100893.13;;;30.50;47.22
61786;BME280;47692;53.714;11.372;2022-08-03T10:22:26;100897.38;;;30.35;47.99
61786;BME280;47692;53.714;11.372;2022-08-03T10:24:59;100897.53;;;30.59;47.38
61786;BME280;47692;53.714;11.372;2022-08-03T10:27:26;100895.25;;;30.89;47.39
61786;BME280;47692;53.714;11.372;2022-08-03T10:29:59;100904.47;;;31.21;47.22
61786;BME280;47692;53.714;11.372;2022-08-03T10:32:48;100878.69;;;31.27;46.00
61786;BME280;47692;53.714;11.372;2022-08-03T10:35:18;100890.97;;;31.21;46.29
61786;BME280;47692;53.714;11.372;2022-08-03T10:37:51;100899.56;;;31.17;46.45
61786;BME280;47692;53.714;11.372;2022-08-03T10:40:21;100892.25;;;31.01;46.71
61786;BME280;47692;53.714;11.372;2022-08-03T10:42:48;100886.50;;;30.95;47.17
61786;BME280;47692;53.714;11.372;2022-08-03T10:45:22;100882.75;;;30.64;46.88
61786;BME280;47692;53.714;11.372;2022-08-03T10:47:49;100891.47;;;30.57;46.82
61786;BME280;47692;53.714;11.372;2022-08-03T10:50:15;100886.13;;;30.74;46.61
61786;BME280;47692;53.714;11.372;2022-08-03T10:53:02;100887.47;;;30.78;46.22
61786;BME280;47692;53.714;11.372;2022-08-03T10:55:37;100888.56;;;30.51;46.43
61786;BME280;47692;53.714;11.372;2022-08-03T11:01:04;100877.78;;;30.93;46.97
61786;BME280;47692;53.714;11.372;2022-08-03T11:03:30;100874.81;;;31.38;46.33
61786;BME280;47692;53.714;11.372;2022-08-03T11:08:43;100885.59;;;31.87;45.11
61786;BME280;47692;53.714;11.372;2022-08-03T11:13:56;100884.44;;;31.73;44.87
61786;BME280;47692;53.714;11.372;2022-08-03T11:16:22;100878.38;;;31.63;44.82
61786;BME280;47692;53.714;11.372;2022-08-03T11:18:55;100867.38;;;31.56;45.14
61786;BME280;47692;53.714;11.372;2022-08-03T11:40:42;100870.91;;;31.90;44.95
61786;BME280;47692;53.714;11.372;2022-08-03T11:46:08;100874.31;;;31.84;44.32
61786;BME280;47692;53.714;11.372;2022-08-03T11:48:42;100862.75;;;32.15;44.38
61786;BME280;47692;53.714;11.372;2022-08-03T11:51:26;100860.97;;;32.55;43.82
61786;BME280;47692;53.714;11.372;2022-08-03T11:53:56;100861.03;;;32.78;43.15
61786;BME280;47692;53.714;11.372;2022-08-03T11:56:21;100860.56;;;32.27;43.39
61786;BME280;47692;53.714;11.372;2022-08-03T11:58:48;100859.69;;;32.34;43.69
61786;BME280;47692;53.714;11.372;2022-08-03T12:01:14;100857.59;;;32.53;43.65
61786;BME280;47692;53.714;11.372;2022-08-03T12:03:43;100859.66;;;32.74;43.35
61786;BME280;47692;53.714;11.372;2022-08-03T12:06:10;100857.97;;;32.73;43.32
61786;BME280;47692;53.714;11.372;2022-08-03T12:08:36;100854.88;;;33.16;43.09
61786;BME280;47692;53.714;11.372;2022-08-03T12:11:03;100861.41;;;33.22;42.75
61786;BME280;47692;53.714;11.372;2022-08-03T12:13:44;100856.03;;;32.59;42.56
61786;BME280;47692;53.714;11.372;2022-08-03T12:16:21;100865.63;;;32.13;42.86
61786;BME280;47692;53.714;11.372;2022-08-03T12:18:58;100860.22;;;32.30;43.68
61786;BME280;47692;53.714;11.372;2022-08-03T12:21:24;100855.69;;;32.62;43.06
61786;BME280;47692;53.714;11.372;2022-08-03T12:23:50;100851.19;;;32.85;43.36
61786;BME280;47692;53.714;11.372;2022-08-03T12:26:20;100853.00;;;33.16;42.62
61786;BME280;47692;53.714;11.372;2022-08-03T12:28:48;100852.63;;;33.19;42.70
61786;BME280;47692;53.714;11.372;2022-08-03T12:31:14;100852.09;;;33.01;42.66
61786;BME280;47692;53.714;11.372;2022-08-03T12:34:00;100848.50;;;33.32;42.34
61786;BME280;47692;53.714;11.372;2022-08-03T12:36:28;100857.56;;;32.93;43.05
61786;BME280;47692;53.714;11.372;2022-08-03T12:38:56;100861.88;;;32.39;43.55
61786;BME280;47692;53.714;11.372;2022-08-03T12:41:51;100850.44;;;32.12;44.35
61786;BME280;47692;53.714;11.372;2022-08-03T12:44:17;100847.00;;;32.43;44.14
61786;BME280;47692;53.714;11.372;2022-08-03T12:46:42;100854.75;;;32.46;43.82
61786;BME280;47692;53.714;11.372;2022-08-03T12:54:24;100845.44;;;33.73;42.51
61786;BME280;47692;53.714;11.372;2022-08-03T12:57:07;100844.56;;;33.58;42.15
61786;BME280;47692;53.714;11.372;2022-08-03T12:59:35;100839.41;;;33.25;42.58
61786;BME280;47692;53.714;11.372;2022-08-03T13:02:01;100834.50;;;33.05;42.71
61786;BME280;47692;53.714;11.372;2022-08-03T13:04:31;100843.03;;;32.94;42.73
61786;BME280;47692;53.714;11.372;2022-08-03T13:07:02;100841.34;;;32.93;43.17
61786;BME280;47692;53.714;11.372;2022-08-03T13:09:28;100846.28;;;33.12;42.84
61786;BME280;47692;53.714;11.372;2022-08-03T13:12:13;100838.50;;;33.09;42.63
61786;BME280;47692;53.714;11.372;2022-08-03T13:14:39;100839.66;;;33.15;42.92
61786;BME280;47692;53.714;11.372;2022-08-03T13:17:05;100842.75;;;33.27;42.44
61786;BME280;47692;53.714;11.372;2022-08-03T13:19:32;100842.44;;;33.30;42.76
61786;BME280;47692;53.714;11.372;2022-08-03T13:21:57;100838.31;;;33.11;43.11
61786;BME280;47692;53.714;11.372;2022-08-03T13:24:23;100837.19;;;32.82;43.68
61786;BME280;47692;53.714;11.372;2022-08-03T13:26:49;100834.13;;;33.08;43.45
61786;BME280;47692;53.714;11.372;2022-08-03T13:29:16;100844.97;;;33.31;43.20
61786;BME280;47692;53.714;11.372;2022-08-03T13:31:41;100841.03;;;32.88;43.18
61786;BME280;47692;53.714;11.372;2022-08-03T13:34:06;100829.38;;;32.55;44.58
61786;BME280;47692;53.714;11.372;2022-08-03T13:36:32;100826.38;;;33.05;43.98
61786;BME280;47692;53.714;11.372;2022-08-03T13:38:57;100834.84;;;33.48;42.31